Time;durP1;ratioP1;P1;durP2;ratioP2;P2;SDS_P1;SDS_P2;PMS_P1;PMS_P2;Temp;Humidity;BMP_temperature;BMP_pressure;BME280_temperature;BME280_humidity;BME280_pressure;Samples;Min_cycle;Max_cycle;Signal;HPM_P1;HPM_P2
2021/07/20 00:00:19;;;;;;;10.60;8.07;;;;;;;20.86;60.89;99385.22;5058498;28;20239;-90
2021/07/20 00:02:51;;;;;;;9.23;7.93;;;;;;;20.70;61.41;99380.28;5075267;28;20230;-90
2021/07/20 00:05:23;;;;;;;10.53;8.00;;;;;;;20.59;61.77;99388.56;5058824;28;20275;-89
2021/07/20 00:07:52;;;;;;;8.93;8.10;;;;;;;20.57;62.06;99392.69;5058335;28;20241;-90
2021/07/20 00:10:26;;;;;;;10.17;8.00;;;;;;;20.42;62.14;99384.69;5041982;28;20288;-89
2021/07/20 00:12:54;;;;;;;9.50;8.00;;;;;;;20.48;61.79;99394.44;5074949;28;20262;-89
2021/07/20 00:15:20;;;;;;;9.20;8.17;;;;;;;20.29;62.40;99386.19;5042062;28;20719;-89
2021/07/20 00:17:49;;;;;;;9.97;7.80;;;;;;;20.27;62.07;99387.53;5058379;28;20555;-90
2021/07/20 00:20:18;;;;;;;8.77;7.80;;;;;;;20.26;61.89;99383.19;5058315;28;20665;-90
2021/07/20 00:22:45;;;;;;;9.07;8.13;;;;;;;20.20;61.72;99382.47;5075007;28;20280;-89
2021/07/20 00:25:12;;;;;;;8.77;7.90;;;;;;;20.07;61.95;99375.78;5058376;28;20325;-90
2021/07/20 00:27:39;;;;;;;8.63;7.77;;;;;;;20.05;61.38;99369.03;5058283;28;20577;-90
2021/07/20 00:30:07;;;;;;;9.77;7.93;;;;;;;19.86;61.66;99382.53;5057930;28;20232;-89
2021/07/20 00:32:35;;;;;;;9.53;7.87;;;;;;;19.67;62.41;99382.44;5041791;28;20217;-90
2021/07/20 00:35:03;;;;;;;8.87;7.97;;;;;;;19.43;63.05;99389.66;5058317;28;20282;-90
2021/07/20 00:37:31;;;;;;;9.23;7.77;;;;;;;19.49;62.54;99383.13;5041765;28;20307;-90
2021/07/20 00:39:58;;;;;;;10.23;8.10;;;;;;;19.48;62.53;99381.50;5058013;28;20225;-91
2021/07/20 00:42:26;;;;;;;9.10;7.63;;;;;;;19.48;62.48;99378.78;5058012;28;20526;-90
2021/07/20 00:44:53;;;;;;;10.60;8.50;;;;;;;19.30;62.47;99374.81;5074474;28;20239;-91
2021/07/20 00:47:20;;;;;;;10.63;7.80;;;;;;;19.21;62.35;99381.13;5074214;28;20232;-90
2021/07/20 00:49:48;;;;;;;9.20;7.80;;;;;;;19.29;61.94;99380.50;5058107;28;20232;-90
2021/07/20 00:52:15;;;;;;;10.30;8.37;;;;;;;19.18;62.25;99382.47;5057672;28;20224;-90
2021/07/20 00:54:42;;;;;;;8.77;7.87;;;;;;;19.08;62.32;99385.28;5041639;28;20231;-90
2021/07/20 00:57:10;;;;;;;10.27;8.07;;;;;;;19.08;62.66;99390.72;5058095;28;20233;-90
2021/07/20 00:59:39;;;;;;;9.17;7.27;;;;;;;18.96;61.41;99375.84;5057685;28;20312;-90
2021/07/20 01:02:06;;;;;;;9.57;7.50;;;;;;;18.84;61.36;99362.63;5057785;28;20609;-90
2021/07/20 01:04:33;;;;;;;11.57;7.97;;;;;;;18.82;61.48;99372.91;5057954;28;20293;-91
2021/07/20 01:07:02;;;;;;;9.27;7.60;;;;;;;18.72;61.68;99359.41;5041619;28;20232;-91
2021/07/20 01:09:29;;;;;;;9.30;7.93;;;;;;;18.58;62.05;99367.34;5057616;28;20228;-91
2021/07/20 01:11:57;;;;;;;11.27;8.27;;;;;;;18.62;62.19;99357.53;5074681;28;20233;-90
2021/07/20 01:14:26;;;;;;;9.43;7.70;;;;;;;18.65;61.35;99365.16;5057243;28;20224;-91
2021/07/20 01:16:55;;;;;;;9.53;7.40;;;;;;;18.66;61.15;99353.22;5057434;28;20239;-90
2021/07/20 01:19:27;;;;;;;8.20;7.07;;;;;;;18.63;61.08;99352.94;5074365;28;20308;-91
2021/07/20 01:21:57;;;;;;;9.87;7.00;;;;;;;18.65;60.40;99356.19;5074494;28;20231;-91
2021/07/20 01:24:24;;;;;;;9.27;7.50;;;;;;;18.57;60.32;99357.56;5040801;28;20229;-91
2021/07/20 01:26:53;;;;;;;9.37;7.30;;;;;;;18.48;60.25;99360.03;5057353;28;20275;-91
2021/07/20 01:29:21;;;;;;;9.07;7.60;;;;;;;18.41;60.81;99358.69;5057451;28;20232;-91
2021/07/20 01:31:50;;;;;;;11.87;7.37;;;;;;;18.38;61.04;99346.50;5057529;28;20671;-91
2021/07/20 01:34:21;;;;;;;10.27;7.40;;;;;;;18.30;61.40;99355.22;5057536;28;20304;-91
2021/07/20 01:36:48;;;;;;;8.53;7.00;;;;;;;18.35;60.85;99347.06;5057404;28;20228;-90
2021/07/20 01:39:18;;;;;;;9.10;7.40;;;;;;;18.17;61.31;99333.28;5057898;28;20228;-91
2021/07/20 01:41:46;;;;;;;10.40;7.63;;;;;;;18.30;60.92;99351.69;5057799;28;20632;-90
2021/07/20 01:44:14;;;;;;;9.20;6.83;;;;;;;18.26;60.66;99359.56;5056852;28;20252;-90
2021/07/20 01:46:47;;;;;;;8.23;6.77;;;;;;;18.26;60.18;99361.47;5040999;28;20224;-91
2021/07/20 01:49:17;;;;;;;10.43;7.23;;;;;;;18.15;60.40;99355.25;5056869;28;20221;-90
2021/07/20 01:51:50;;;;;;;10.97;7.07;;;;;;;18.07;60.10;99355.81;5040544;28;20600;-90
2021/07/20 01:54:20;;;;;;;11.43;7.03;;;;;;;18.15;59.35;99349.03;5071794;28;20232;-91
2021/07/20 01:56:47;;;;;;;9.17;6.50;;;;;;;18.09;58.99;99359.09;5090581;28;20398;-91
2021/07/20 01:59:17;;;;;;;8.47;6.63;;;;;;;17.98;59.33;99363.69;5061277;28;20312;-90
2021/07/20 02:10:09;;;;;;;10.40;6.37;;;;;;;17.79;58.38;99357.22;5063396;28;20529;-91
2021/07/20 02:13:03;;;;;;;8.80;6.20;;;;;;;17.73;58.83;99352.09;5064272;28;20225;-90
2021/07/20 02:15:50;;;;;;;7.07;6.30;;;;;;;17.65;59.31;99344.50;5063856;28;20239;-91
2021/07/20 02:18:26;;;;;;;9.97;6.60;;;;;;;17.70;59.35;99356.16;5061365;28;20252;-91
2021/07/20 02:20:56;;;;;;;7.23;6.20;;;;;;;17.68;59.63;99357.53;5077332;28;20527;-91
2021/07/20 02:23:34;;;;;;;8.90;6.27;;;;;;;17.64;59.99;99353.75;5062147;28;20610;-91
2021/07/20 02:26:01;;;;;;;9.13;6.80;;;;;;;17.60;60.44;99353.44;5060742;28;20719;-89
2021/07/20 02:28:28;;;;;;;8.63;6.57;;;;;;;17.54;60.56;99351.81;5077305;28;20626;-91
2021/07/20 02:30:58;;;;;;;8.93;6.73;;;;;;;17.56;60.79;99364.00;5044868;28;20274;-91
2021/07/20 02:33:26;;;;;;;8.60;6.73;;;;;;;17.50;60.93;99353.41;5060497;28;20707;-91
2021/07/20 02:35:53;;;;;;;9.50;6.80;;;;;;;17.57;60.67;99362.09;5060821;28;20308;-91
2021/07/20 02:38:25;;;;;;;8.47;6.37;;;;;;;17.50;60.46;99346.09;5060983;28;20524;-91
2021/07/20 02:40:55;;;;;;;10.57;6.47;;;;;;;17.62;59.96;99359.41;5093337;28;20248;-91
2021/07/20 02:43:24;;;;;;;8.20;6.17;;;;;;;17.71;59.21;99371.34;5060407;28;20236;-90
2021/07/20 02:45:52;;;;;;;9.27;6.37;;;;;;;17.65;59.15;99369.69;5044188;28;20225;-92
2021/07/20 02:48:22;;;;;;;7.33;6.57;;;;;;;17.40;59.61;99337.19;5060079;28;20278;-91
2021/07/20 02:50:51;;;;;;;7.40;6.17;;;;;;;17.51;59.86;99366.69;5076949;28;20252;-91
2021/07/20 02:53:31;;;;;;;8.73;6.20;;;;;;;17.50;59.75;99366.97;5091852;28;20228;-90
2021/07/20 02:56:08;;;;;;;9.70;6.37;;;;;;;17.43;59.82;99359.13;5060572;28;20233;-92
2021/07/20 02:58:43;;;;;;;9.87;6.27;;;;;;;17.43;59.72;99372.66;5061053;28;20216;-91
2021/07/20 03:01:17;;;;;;;9.47;6.70;;;;;;;17.37;60.33;99357.47;5045215;28;20530;-91
2021/07/20 03:03:44;;;;;;;8.90;7.07;;;;;;;17.34;59.87;99355.31;5043453;28;20231;-91
2021/07/20 03:06:12;;;;;;;7.67;6.30;;;;;;;17.35;60.23;99367.78;5076151;28;20232;-91
2021/07/20 03:08:43;;;;;;;9.13;6.27;;;;;;;17.32;60.14;99371.03;5076119;28;20312;-91
2021/07/20 03:19:58;;;;;;;9.80;6.77;;;;;;;17.30;60.38;99356.97;5077031;28;20679;-92
2021/07/20 03:22:31;;;;;;;9.60;6.87;;;;;;;17.44;59.58;99366.16;5044446;28;20296;-91
2021/07/20 03:25:05;;;;;;;7.63;6.10;;;;;;;17.45;59.90;99372.41;5060407;28;20524;-92
2021/07/20 03:27:39;;;;;;;9.87;6.80;;;;;;;17.46;59.99;99368.59;5076377;28;20287;-92
2021/07/20 03:30:11;;;;;;;10.63;6.80;;;;;;;17.41;59.70;99376.72;5075607;28;20252;-91
2021/07/20 03:32:44;;;;;;;9.63;7.00;;;;;;;17.30;60.13;99366.97;5043435;28;20232;-91
2021/07/20 03:35:15;;;;;;;10.10;6.80;;;;;;;17.41;59.10;99355.03;5060258;28;20661;-92
2021/07/20 03:37:44;;;;;;;8.33;7.43;;;;;;;17.58;59.30;99383.53;5059741;28;20316;-91
2021/07/20 03:40:12;;;;;;;11.37;7.07;;;;;;;17.70;58.97;99385.13;5059111;28;20225;-91
2021/07/20 03:42:39;;;;;;;9.37;7.40;;;;;;;17.70;58.61;99385.97;5059748;28;20233;-91
2021/07/20 03:45:08;;;;;;;10.37;7.10;;;;;;;17.74;58.94;99378.91;5075607;28;20237;-91
2021/07/20 03:47:37;;;;;;;11.63;7.67;;;;;;;17.72;59.21;99381.09;5092470;28;20284;-91
2021/07/20 03:50:16;;;;;;;10.30;6.93;;;;;;;17.79;59.05;99388.94;5059954;28;20307;-90
2021/07/20 03:52:44;;;;;;;11.63;7.57;;;;;;;17.78;58.71;99379.16;5059062;28;20225;-90
2021/07/20 03:55:11;;;;;;;9.13;7.27;;;;;;;17.85;58.71;99385.94;5058939;28;20232;-91
2021/07/20 03:57:39;;;;;;;9.60;7.13;;;;;;;17.81;58.71;99384.06;5043099;28;20229;-91
2021/07/20 04:00:08;;;;;;;9.00;7.07;;;;;;;17.78;59.46;99396.25;5075437;28;20228;-91
2021/07/20 04:02:46;;;;;;;9.40;7.23;;;;;;;17.82;59.19;99386.50;5059856;28;20286;-90
2021/07/20 04:05:20;;;;;;;9.77;7.30;;;;;;;18.03;58.53;99390.81;5061380;28;20303;-90
2021/07/20 04:07:49;;;;;;;9.33;6.87;;;;;;;18.07;58.32;99374.78;5059595;28;20566;-91
2021/07/20 04:10:17;;;;;;;9.10;6.80;;;;;;;18.11;58.27;99391.31;5075354;28;20693;-91
2021/07/20 04:13:02;;;;;;;10.87;6.77;;;;;;;18.18;57.88;99383.72;5090550;28;20235;-91
2021/07/20 04:15:50;;;;;;;7.93;7.13;;;;;;;18.15;58.18;99387.78;5076543;28;20274;-91
2021/07/20 04:18:22;;;;;;;9.80;6.97;;;;;;;18.13;58.42;99386.44;5059086;28;20232;-90
2021/07/20 04:20:50;;;;;;;9.00;7.20;;;;;;;18.04;57.92;99378.06;5042382;28;20228;-90
2021/07/20 04:23:22;;;;;;;10.53;7.70;;;;;;;18.13;58.25;99384.56;5059126;28;20227;-90
2021/07/20 04:26:03;;;;;;;10.27;7.47;;;;;;;18.21;58.42;99397.53;5060750;28;20224;-89
2021/07/20 04:28:34;;;;;;;11.57;7.73;;;;;;;18.23;57.82;99399.97;5075196;28;20251;-90
2021/07/20 04:31:03;;;;;;;11.73;7.33;;;;;;;18.31;57.89;99396.69;5059433;28;20235;-91
2021/07/20 04:33:33;;;;;;;14.27;7.60;;;;;;;18.36;57.49;99405.63;5075139;28;20595;-90
2021/07/20 04:36:22;;;;;;;7.87;6.80;;;;;;;18.39;57.34;99394.22;5089216;28;20240;-91
2021/07/20 04:38:56;;;;;;;11.90;7.33;;;;;;;18.50;57.27;99405.88;5059659;28;20232;-90
2021/07/20 04:41:23;;;;;;;11.70;7.47;;;;;;;18.44;57.65;99406.97;5058550;28;20244;-91
2021/07/20 04:43:51;;;;;;;9.83;7.00;;;;;;;18.45;57.31;99412.13;5058630;28;20224;-90
2021/07/20 04:46:30;;;;;;;9.57;7.10;;;;;;;18.49;57.42;99407.75;5059774;28;20307;-90
2021/07/20 04:49:06;;;;;;;11.43;7.37;;;;;;;18.51;57.53;99410.22;5059214;28;20229;-90
2021/07/20 04:51:33;;;;;;;12.97;7.67;;;;;;;18.40;58.00;99414.84;5075111;28;20312;-91
2021/07/20 04:54:04;;;;;;;11.37;6.97;;;;;;;18.43;57.09;99422.41;5058268;28;20315;-92
2021/07/20 04:56:33;;;;;;;10.70;7.57;;;;;;;18.42;57.54;99414.59;5091071;28;20294;-92
2021/07/20 04:59:01;;;;;;;9.43;7.17;;;;;;;18.34;57.95;99412.41;5058541;28;20225;-90
2021/07/20 05:01:29;;;;;;;10.03;7.10;;;;;;;18.20;57.65;99409.47;5075184;28;20308;-90
2021/07/20 05:04:01;;;;;;;8.70;7.17;;;;;;;18.32;57.49;99420.03;5074581;28;20627;-90
2021/07/20 05:06:41;;;;;;;9.53;7.47;;;;;;;18.26;57.31;99427.34;5059567;28;20659;-91
2021/07/20 05:09:09;;;;;;;10.33;7.00;;;;;;;18.28;57.28;99427.09;5074436;28;20238;-88
2021/07/20 05:11:37;;;;;;;9.33;6.83;;;;;;;18.39;57.10;99436.81;5057898;28;20233;-90
2021/07/20 05:14:04;;;;;;;9.87;6.60;;;;;;;18.31;57.15;99440.91;5073829;28;20221;-90
2021/07/20 05:16:33;;;;;;;12.67;7.00;;;;;;;18.39;57.40;99440.34;5041399;28;20551;-91
2021/07/20 05:19:04;;;;;;;10.50;7.47;;;;;;;18.53;57.32;99450.59;5057212;28;20236;-89
2021/07/20 05:22:07;;;;;;;10.40;7.10;;;;;;;18.71;56.68;99450.06;5046780;28;20236;-90
2021/07/20 05:24:46;;;;;;;10.03;7.43;;;;;;;18.59;56.79;99419.69;5074106;28;20683;-89
2021/07/20 05:27:16;;;;;;;10.37;6.57;;;;;;;18.86;56.21;99434.50;5057773;28;20303;-90
2021/07/20 05:29:46;;;;;;;8.83;6.83;;;;;;;18.83;55.49;99436.97;5090635;28;20252;-90
2021/07/20 05:32:27;;;;;;;9.73;7.33;;;;;;;18.98;55.73;99449.69;5061862;28;20224;-90
2021/07/20 05:34:56;;;;;;;10.40;6.97;;;;;;;19.26;54.09;99452.50;5061937;28;20255;-88
2021/07/20 05:37:24;;;;;;;9.50;7.03;;;;;;;19.53;53.64;99459.44;5045394;28;20285;-89
2021/07/20 05:39:55;;;;;;;10.00;6.93;;;;;;;19.76;53.23;99451.38;5061974;28;20225;-90
2021/07/20 05:42:28;;;;;;;8.57;6.63;;;;;;;20.03;53.15;99460.94;5062312;28;20225;-89
2021/07/20 05:44:57;;;;;;;9.77;6.93;;;;;;;20.11;51.45;99455.69;5078218;28;20221;-91
2021/07/20 05:47:26;;;;;;;12.87;8.17;;;;;;;20.33;51.13;99457.97;5061361;28;20682;-90
2021/07/20 05:50:01;;;;;;;7.53;6.70;;;;;;;20.71;50.11;99458.13;5061887;28;20670;-89
2021/07/20 05:52:45;;;;;;;9.17;6.53;;;;;;;20.98;49.66;99467.31;5048256;28;20228;-90
2021/07/20 05:55:13;;;;;;;8.33;6.73;;;;;;;21.51;48.77;99464.41;5093985;28;20232;-91
2021/07/20 05:57:41;;;;;;;10.70;6.90;;;;;;;21.87;47.99;99470.97;5111671;28;20307;-90
2021/07/20 06:00:22;;;;;;;9.00;6.87;;;;;;;21.90;47.04;99467.63;5061648;28;20229;-88
2021/07/20 06:03:01;;;;;;;9.10;6.43;;;;;;;22.17;46.53;99463.41;5062814;28;20302;-90
2021/07/20 06:05:28;;;;;;;8.43;6.93;;;;;;;22.04;47.00;99475.09;5060912;28;20240;-89
2021/07/20 06:07:56;;;;;;;12.03;7.47;;;;;;;22.30;46.62;99479.00;5061220;28;20310;-88
2021/07/20 06:10:24;;;;;;;8.60;7.10;;;;;;;22.16;46.32;99459.84;5060801;28;20248;-90
2021/07/20 06:12:52;;;;;;;8.90;6.27;;;;;;;22.08;46.69;99485.09;5044838;28;20225;-89
2021/07/20 06:15:19;;;;;;;8.30;6.70;;;;;;;22.46;45.68;99477.63;5060706;28;20593;-90
2021/07/20 06:17:46;;;;;;;9.67;6.87;;;;;;;22.25;45.73;99482.66;5077460;28;20230;-88
2021/07/20 06:20:13;;;;;;;10.80;7.10;;;;;;;22.11;46.89;99480.97;5076861;28;20692;-90
2021/07/20 06:22:59;;;;;;;8.20;6.07;;;;;;;22.42;45.65;99481.25;5060876;28;20224;-90
2021/07/20 06:25:32;;;;;;;9.27;6.60;;;;;;;22.58;45.22;99486.13;5045608;28;20653;-89
2021/07/20 06:28:00;;;;;;;7.67;6.67;;;;;;;22.71;44.97;99485.38;5060899;28;20692;-89
2021/07/20 06:30:27;;;;;;;8.47;6.67;;;;;;;22.52;44.45;99486.53;5076747;28;20590;-90
2021/07/20 06:32:54;;;;;;;8.53;7.03;;;;;;;22.27;45.59;99485.88;5060560;28;20669;-88
2021/07/20 06:35:21;;;;;;;7.90;6.70;;;;;;;22.41;45.30;99485.88;5060268;28;20235;-90
2021/07/20 06:37:49;;;;;;;9.43;6.67;;;;;;;22.20;45.46;99490.09;5060662;28;20230;-90
2021/07/20 06:40:18;;;;;;;8.63;6.60;;;;;;;21.80;46.13;99486.88;5109888;28;20236;-88
2021/07/20 06:42:46;;;;;;;8.37;7.00;;;;;;;21.60;46.51;99491.84;5060093;28;20234;-90
2021/07/20 06:45:14;;;;;;;9.70;6.67;;;;;;;21.37;47.17;99490.81;5076666;28;20304;-90
2021/07/20 06:47:43;;;;;;;8.20;6.37;;;;;;;21.38;47.53;99476.88;5060085;28;20230;-89
2021/07/20 06:50:12;;;;;;;8.17;6.27;;;;;;;21.63;47.42;99492.06;5076368;28;20305;-90
2021/07/20 06:52:42;;;;;;;10.80;6.90;;;;;;;21.46;47.28;99491.78;5093609;28;20228;-88
2021/07/20 06:55:10;;;;;;;11.27;6.57;;;;;;;21.29;47.21;99495.00;5043464;28;20238;-90
2021/07/20 06:57:37;;;;;;;10.53;6.40;;;;;;;21.40;47.15;99498.41;5077035;28;20235;-90
2021/07/20 07:00:06;;;;;;;9.17;6.60;;;;;;;21.18;48.19;99492.72;5042609;28;20283;-89
2021/07/20 07:02:35;;;;;;;9.27;6.37;;;;;;;20.98;47.89;99480.94;5093219;28;20279;-90
2021/07/20 07:05:14;;;;;;;7.83;6.60;;;;;;;20.81;48.24;99487.97;5043017;28;20233;-89
2021/07/20 07:07:42;;;;;;;7.90;6.40;;;;;;;20.97;48.43;99487.47;5060039;28;20225;-90
2021/07/20 07:10:10;;;;;;;8.47;6.20;;;;;;;20.87;48.78;99494.94;5076217;28;20209;-89
2021/07/20 07:12:37;;;;;;;8.57;6.53;;;;;;;20.84;48.83;99490.09;5059801;28;20229;-89
2021/07/20 07:15:05;;;;;;;7.90;6.67;;;;;;;20.57;49.82;99490.66;5059269;28;20229;-91
2021/07/20 07:17:33;;;;;;;10.27;6.43;;;;;;;20.73;49.29;99499.47;5076519;28;20225;-90
2021/07/20 07:20:01;;;;;;;8.23;6.03;;;;;;;20.72;49.07;99484.25;5043074;28;20228;-91
2021/07/20 07:22:28;;;;;;;7.63;6.27;;;;;;;20.48;49.49;99478.78;5059262;28;20228;-89
2021/07/20 07:24:56;;;;;;;8.83;6.57;;;;;;;20.85;49.36;99481.63;5059266;28;20309;-89
2021/07/20 07:27:23;;;;;;;7.77;6.60;;;;;;;20.94;48.74;99484.53;5059514;28;20236;-90
2021/07/20 07:29:52;;;;;;;9.93;7.03;;;;;;;20.99;48.94;99487.19;5059519;28;20678;-90
2021/07/20 07:32:20;;;;;;;7.90;6.20;;;;;;;20.96;48.93;99477.69;5109426;28;20662;-89
2021/07/20 07:34:47;;;;;;;9.47;6.53;;;;;;;21.23;48.59;99487.97;5059472;28;20316;-90
2021/07/20 07:37:15;;;;;;;10.47;6.43;;;;;;;21.35;47.94;99487.56;5092492;28;20243;-88
2021/07/20 07:39:44;;;;;;;7.43;6.30;;;;;;;21.40;47.92;99463.78;5075849;28;20228;-90
2021/07/20 07:42:11;;;;;;;7.30;6.30;;;;;;;21.64;47.46;99477.34;5057818;28;20228;-89
2021/07/20 07:44:40;;;;;;;9.53;6.63;;;;;;;21.49;47.85;99475.63;5058198;28;20252;-90
2021/07/20 07:47:08;;;;;;;8.00;6.03;;;;;;;21.65;47.86;99489.06;5076012;28;20235;-89
2021/07/20 07:49:36;;;;;;;9.37;6.97;;;;;;;21.49;48.40;99486.53;5091562;28;20247;-89
2021/07/20 07:52:03;;;;;;;9.20;6.57;;;;;;;21.76;48.49;99482.31;5074309;28;20314;-90
2021/07/20 07:54:30;;;;;;;11.93;7.07;;;;;;;21.85;48.24;99470.44;5057176;28;20345;-89
2021/07/20 07:56:57;;;;;;;8.13;6.70;;;;;;;21.86;47.79;99480.25;5058126;28;20242;-87
2021/07/20 07:59:26;;;;;;;9.40;6.70;;;;;;;21.97;47.55;99480.13;5058053;28;20230;-88
2021/07/20 08:01:54;;;;;;;7.37;6.33;;;;;;;22.04;47.05;99480.53;5074507;28;20276;-90
2021/07/20 08:04:25;;;;;;;10.60;6.60;;;;;;;21.93;46.83;99482.63;5057533;28;20230;-89
2021/07/20 08:06:53;;;;;;;8.50;6.93;;;;;;;22.11;46.28;99489.16;5058170;28;20231;-89
2021/07/20 08:09:20;;;;;;;8.33;6.90;;;;;;;22.47;46.05;99492.88;5091078;28;20592;-89
2021/07/20 08:11:49;;;;;;;7.47;6.77;;;;;;;22.73;45.48;99477.66;5074454;28;20645;-89
2021/07/20 08:14:20;;;;;;;8.80;6.70;;;;;;;22.95;44.62;99478.88;5058221;28;20242;-89
2021/07/20 08:16:49;;;;;;;8.80;6.30;;;;;;;23.37;44.07;99486.75;5057901;28;20701;-89
2021/07/20 08:19:18;;;;;;;9.67;6.83;;;;;;;23.21;43.65;99486.25;5057802;28;20239;-89
2021/07/20 08:21:46;;;;;;;7.60;6.67;;;;;;;23.66;43.27;99487.16;5057978;28;20323;-87
2021/07/20 08:24:14;;;;;;;8.63;6.47;;;;;;;23.73;43.34;99485.94;5057384;28;20241;-88
2021/07/20 08:26:49;;;;;;;7.20;6.33;;;;;;;23.95;42.85;99491.41;5057898;28;20254;-88
2021/07/20 08:29:18;;;;;;;7.23;6.50;;;;;;;23.74;43.17;99482.91;5074048;28;20259;-88
2021/07/20 08:31:49;;;;;;;8.63;6.57;;;;;;;23.81;43.75;99487.94;5041334;28;20236;-88
2021/07/20 08:34:19;;;;;;;7.80;7.00;;;;;;;23.31;44.28;99479.75;5057237;28;20226;-88
2021/07/20 08:36:47;;;;;;;10.30;6.90;;;;;;;23.27;44.06;99467.81;5073701;28;20306;-88
2021/07/20 08:39:14;;;;;;;8.07;7.20;;;;;;;22.83;44.69;99480.19;5057218;28;20234;-87
2021/07/20 08:42:08;;;;;;;8.23;7.00;;;;;;;22.78;45.21;99480.28;5057493;28;20320;-89
2021/07/20 08:44:51;;;;;;;8.57;6.87;;;;;;;22.78;45.58;99474.84;5073351;28;20235;-87
2021/07/20 08:47:47;;;;;;;8.73;7.20;;;;;;;22.65;46.83;99478.34;5073968;28;20241;-89
2021/07/20 08:50:29;;;;;;;9.90;7.43;;;;;;;23.09;46.10;99477.78;5004782;28;20236;-90
2021/07/20 08:53:17;;;;;;;11.17;7.70;;;;;;;22.99;45.56;99480.72;5090407;28;20231;-87
2021/07/20 08:55:50;;;;;;;9.67;7.60;;;;;;;22.96;45.42;99475.84;5073581;28;20253;-86
2021/07/20 08:58:22;;;;;;;9.70;7.20;;;;;;;23.05;44.94;99478.69;5056946;28;20360;-88
2021/07/20 09:00:53;;;;;;;9.10;7.30;;;;;;;23.50;44.26;99480.44;5040605;28;20294;-89
2021/07/20 09:03:43;;;;;;;9.63;7.30;;;;;;;24.07;42.98;99472.53;5057453;28;20543;-88
2021/07/20 09:06:33;;;;;;;9.37;7.20;;;;;;;24.43;42.28;99476.00;5056534;28;20228;-89
2021/07/20 09:09:19;;;;;;;11.63;7.53;;;;;;;24.30;41.79;99485.09;5106975;28;20232;-89
2021/07/20 09:11:50;;;;;;;10.10;7.10;;;;;;;23.66;43.24;99467.22;5057189;28;20227;-87
2021/07/20 09:14:33;;;;;;;8.95;7.50;;;;;;;23.72;43.94;99476.13;5039789;28;20591;-89
2021/07/20 09:17:14;;;;;;;8.70;7.27;;;;;;;23.42;44.32;99477.63;5057271;28;20239;-89
2021/07/20 09:19:50;;;;;;;8.23;6.83;;;;;;;23.35;44.49;99480.75;5058163;28;20251;-89
2021/07/20 09:22:18;;;;;;;10.03;7.73;;;;;;;23.03;45.38;99469.97;5040965;28;20701;-87
2021/07/20 09:24:55;;;;;;;9.97;7.50;;;;;;;23.08;45.28;99476.16;5057711;28;20582;-88
2021/07/20 09:27:40;;;;;;;9.47;7.03;;;;;;;23.28;45.63;99474.91;5073122;28;20595;-88
2021/07/20 09:30:15;;;;;;;8.27;7.47;;;;;;;23.66;45.00;99469.94;5056596;28;20588;-87
2021/07/20 09:33:06;;;;;;;8.57;7.30;;;;;;;24.05;43.79;99458.34;5073181;28;20240;-88
2021/07/20 09:35:40;;;;;;;8.13;7.30;;;;;;;24.13;44.45;99469.34;5072397;28;20246;-86
2021/07/20 09:38:27;;;;;;;8.15;7.28;;;;;;;24.00;43.49;99470.22;5055995;28;20257;-89
2021/07/20 09:41:07;;;;;;;9.10;7.50;;;;;;;24.59;42.70;99470.88;5056593;28;20231;-86
2021/07/20 09:44:02;;;;;;;7.90;7.10;;;;;;;24.54;42.02;99473.78;5107610;28;20226;-87
2021/07/20 09:46:59;;;;;;;9.18;8.27;;;;;;;24.41;41.91;99459.06;5073510;28;20540;-88
2021/07/20 09:49:38;;;;;;;7.80;6.78;;;;;;;24.25;43.04;99466.06;5057198;28;20286;-88
2021/07/20 09:52:14;;;;;;;8.73;7.43;;;;;;;24.17;42.18;99477.75;5073396;28;20251;-88
2021/07/20 09:54:56;;;;;;;8.95;7.57;;;;;;;24.33;42.13;99470.78;5073865;28;20278;-88
2021/07/20 09:57:33;;;;;;;10.32;8.00;;;;;;;24.46;42.44;99478.09;5073572;28;20273;-87
2021/07/20 10:00:10;;;;;;;9.20;7.90;;;;;;;24.60;41.82;99471.69;5073764;28;20278;-88
2021/07/20 10:02:46;;;;;;;9.25;7.63;;;;;;;24.42;42.87;99479.03;5074166;28;20360;-88
2021/07/20 10:05:15;;;;;;;8.98;7.85;;;;;;;24.73;42.41;99482.56;5073739;28;20227;-88
2021/07/20 10:07:46;;;;;;;9.73;7.47;;;;;;;24.80;41.90;99469.22;5074551;28;20633;-88
2021/07/20 10:10:18;;;;;;;10.10;8.30;;;;;;;24.92;41.73;99471.38;5106766;28;20279;-88
2021/07/20 10:13:04;;;;;;;8.63;7.72;;;;;;;24.72;41.40;99463.72;5073702;28;20244;-87
2021/07/20 10:15:43;;;;;;;9.90;8.00;;;;;;;24.95;42.05;99473.50;5056967;28;20225;-88
2021/07/20 10:18:17;;;;;;;8.98;7.63;;;;;;;24.89;41.09;99477.50;5074444;28;20531;-87
2021/07/20 10:20:49;;;;;;;9.45;7.57;;;;;;;24.88;40.83;99473.94;5093705;28;20235;-88
2021/07/20 10:23:27;;;;;;;9.15;7.97;;;;;;;25.07;42.08;99478.34;5044510;28;20236;-86
2021/07/20 10:26:18;;;;;;;8.60;7.20;;;;;;;24.96;41.03;99467.66;5062989;28;20221;-86
2021/07/20 10:28:50;;;;;;;8.68;7.75;;;;;;;24.98;40.55;99478.31;5060405;28;20249;-86
2021/07/20 10:31:25;;;;;;;7.80;7.00;;;;;;;25.18;40.29;99474.19;5093625;28;20585;-88
2021/07/20 10:33:57;;;;;;;8.32;7.00;;;;;;;25.18;39.43;99474.19;5093589;28;20686;-89
2021/07/20 10:36:27;;;;;;;8.77;7.35;;;;;;;25.27;39.48;99470.34;5059856;28;20235;-87
2021/07/20 10:39:13;;;;;;;8.35;7.38;;;;;;;25.23;40.56;99465.81;5077122;28;20225;-85
2021/07/20 10:42:15;;;;;;;8.45;6.97;;;;;;;25.39;39.41;99472.44;5060293;28;20236;-88
2021/07/20 10:44:53;;;;;;;8.93;7.57;;;;;;;25.51;40.37;99488.28;5009916;28;20304;-88
2021/07/20 10:47:23;;;;;;;8.30;7.38;;;;;;;25.53;38.56;99467.63;5076348;28;20245;-88
2021/07/20 10:49:53;;;;;;;10.25;7.40;;;;;;;25.65;38.30;99472.50;5059989;28;20278;-86
2021/07/20 10:52:20;;;;;;;8.35;6.93;;;;;;;25.20;38.38;99477.41;5109827;28;20235;-88
2021/07/20 10:54:57;;;;;;;8.02;6.82;;;;;;;25.10;39.41;99464.03;5076365;28;20271;-87
2021/07/20 10:57:28;;;;;;;10.63;7.57;;;;;;;25.65;40.04;99476.06;5110554;28;20306;-87
2021/07/20 11:00:00;;;;;;;9.93;7.68;;;;;;;26.04;37.76;99469.56;5059913;28;20323;-88
2021/07/20 11:02:46;;;;;;;7.93;7.13;;;;;;;25.57;37.40;99460.38;5059747;28;20282;-88
2021/07/20 11:05:14;;;;;;;8.57;7.38;;;;;;;25.72;37.77;99464.56;5076114;28;20228;-88
2021/07/20 11:07:48;;;;;;;8.75;7.85;;;;;;;25.54;37.59;99460.19;5043411;28;20229;-88
2021/07/20 11:10:41;;;;;;;10.65;8.10;;;;;;;25.56;38.52;99464.28;5042979;28;20530;-87
2021/07/20 11:13:10;;;;;;;9.45;7.88;;;;;;;25.24;39.12;99454.50;5077316;28;20260;-88
2021/07/20 11:15:39;;;;;;;8.63;7.82;;;;;;;25.75;37.76;99461.22;5059357;28;20228;-88
2021/07/20 11:18:14;;;;;;;8.85;7.38;;;;;;;25.89;38.21;99464.59;5059726;28;20219;-87
2021/07/20 11:20:42;;;;;;;8.60;7.70;;;;;;;25.96;37.92;99464.06;5109553;28;20223;-87
2021/07/20 11:23:09;;;;;;;8.82;7.93;;;;;;;25.91;37.41;99462.31;5109860;28;20246;-87
2021/07/20 11:25:40;;;;;;;8.32;7.45;;;;;;;26.10;38.28;99443.56;5059379;28;20241;-88
2021/07/20 11:28:07;;;;;;;9.77;7.82;;;;;;;26.41;37.80;99448.03;5042642;28;20341;-87
2021/07/20 11:30:36;;;;;;;9.98;7.80;;;;;;;26.51;37.54;99453.94;5074345;28;20291;-87
2021/07/20 11:33:16;;;;;;;9.23;7.80;;;;;;;26.27;37.03;99446.28;5109658;28;20231;-88
2021/07/20 11:36:04;;;;;;;8.77;7.95;;;;;;;25.88;37.58;99453.94;5089052;28;20232;-86
2021/07/20 11:38:33;;;;;;;8.80;7.90;;;;;;;25.22;38.60;99429.38;5059326;28;20223;-87
2021/07/20 11:41:06;;;;;;;9.90;8.20;;;;;;;25.64;38.99;99443.44;5058912;28;20236;-87
2021/07/20 11:43:42;;;;;;;8.93;8.02;;;;;;;26.09;37.95;99439.19;5076861;28;20229;-88
2021/07/20 11:46:12;;;;;;;9.13;8.07;;;;;;;26.14;36.54;99444.50;5058670;28;20247;-88
2021/07/20 11:48:46;;;;;;;9.07;8.18;;;;;;;26.58;36.48;99436.97;5059054;28;20678;-87
2021/07/20 11:51:19;;;;;;;9.27;8.27;;;;;;;26.49;36.32;99437.00;5075159;28;20235;-87
2021/07/20 11:53:52;;;;;;;9.52;8.02;;;;;;;26.90;37.02;99433.59;5059371;28;20225;-86
2021/07/20 11:56:26;;;;;;;8.90;8.10;;;;;;;26.79;36.99;99440.56;5075675;28;20260;-86
2021/07/20 11:59:17;;;;;;;10.38;7.90;;;;;;;27.56;35.62;99444.81;5059251;28;20242;-87
2021/07/20 12:02:21;;;;;;;9.05;8.15;;;;;;;27.18;35.56;99433.91;5075337;28;20239;-87
2021/07/20 12:05:06;;;;;;;9.00;7.90;;;;;;;27.57;35.20;99430.75;5076222;28;20647;-87
2021/07/20 12:07:47;;;;;;;8.57;7.38;;;;;;;27.83;34.27;99435.19;5092149;28;20229;-87
2021/07/20 12:10:32;;;;;;;9.57;8.63;;;;;;;27.63;34.88;99434.06;5058359;28;20284;-86
2021/07/20 12:13:05;;;;;;;9.20;8.30;;;;;;;27.75;34.11;99439.66;5074886;28;20231;-85